sensor_id;sensor_type;location;lat;lon;timestamp;pressure;altitude;pressure_sealevel;temperature;humidity
61119;BME280;51448;51.660;5.824;2023-07-31T00:01:46;100931.72;;;16.62;100.00
61119;BME280;51448;51.660;5.824;2023-07-31T00:04:14;100936.97;;;16.64;100.00
61119;BME280;51448;51.660;5.824;2023-07-31T00:06:41;100924.47;;;16.66;100.00
61119;BME280;51448;51.660;5.824;2023-07-31T00:09:09;100930.63;;;16.66;100.00
61119;BME280;51448;51.660;5.824;2023-07-31T00:11:37;100922.59;;;16.68;100.00
61119;BME280;51448;51.660;5.824;2023-07-31T00:14:04;100938.34;;;16.71;100.00
61119;BME280;51448;51.660;5.824;2023-07-31T00:16:32;100920.72;;;16.70;100.00
61119;BME280;51448;51.660;5.824;2023-07-31T00:18:59;100920.66;;;16.72;100.00
61119;BME280;51448;51.660;5.824;2023-07-31T00:21:27;100921.50;;;16.72;100.00
61119;BME280;51448;51.660;5.824;2023-07-31T00:23:55;100922.41;;;16.71;100.00
61119;BME280;51448;51.660;5.824;2023-07-31T00:26:22;100925.19;;;16.69;100.00
61119;BME280;51448;51.660;5.824;2023-07-31T00:28:50;100926.03;;;16.70;100.00
61119;BME280;51448;51.660;5.824;2023-07-31T00:31:17;100926.88;;;16.70;100.00
61119;BME280;51448;51.660;5.824;2023-07-31T00:33:45;100926.03;;;16.70;100.00
61119;BME280;51448;51.660;5.824;2023-07-31T00:36:13;100923.38;;;16.70;100.00
61119;BME280;51448;51.660;5.824;2023-07-31T00:38:42;100917.22;;;16.69;100.00
61119;BME280;51448;51.660;5.824;2023-07-31T00:41:10;100917.22;;;16.69;100.00
61119;BME280;51448;51.660;5.824;2023-07-31T00:43:37;100915.41;;;16.70;100.00
61119;BME280;51448;51.660;5.824;2023-07-31T00:46:05;100898.63;;;16.69;100.00
61119;BME280;51448;51.660;5.824;2023-07-31T00:48:35;100901.28;;;16.69;100.00
61119;BME280;51448;51.660;5.824;2023-07-31T00:51:03;100907.50;;;16.68;100.00
61119;BME280;51448;51.660;5.824;2023-07-31T00:53:31;100917.28;;;16.68;100.00
61119;BME280;51448;51.660;5.824;2023-07-31T00:55:58;100918.22;;;16.67;100.00
61119;BME280;51448;51.660;5.824;2023-07-31T00:58:26;100915.56;;;16.67;100.00
61119;BME280;51448;51.660;5.824;2023-07-31T01:00:54;100912.03;;;16.66;100.00
61119;BME280;51448;51.660;5.824;2023-07-31T01:03:22;100911.97;;;16.68;100.00
61119;BME280;51448;51.660;5.824;2023-07-31T01:09:03;100898.69;;;16.68;100.00
61119;BME280;51448;51.660;5.824;2023-07-31T01:11:47;100901.34;;;16.68;100.00
61119;BME280;51448;51.660;5.824;2023-07-31T01:14:20;100895.34;;;16.64;100.00
61119;BME280;51448;51.660;5.824;2023-07-31T01:16:47;100893.53;;;16.65;100.00
61119;BME280;51448;51.660;5.824;2023-07-31T01:19:17;100893.47;;;16.66;100.00
61119;BME280;51448;51.660;5.824;2023-07-31T01:27:55;100890.88;;;16.65;100.00
61119;BME280;51448;51.660;5.824;2023-07-31T01:30:41;100893.53;;;16.65;100.00
61119;BME280;51448;51.660;5.824;2023-07-31T01:33:12;100898.84;;;16.65;100.00
61119;BME280;51448;51.660;5.824;2023-07-31T01:35:43;100892.59;;;16.66;100.00
61119;BME280;51448;51.660;5.824;2023-07-31T01:38:12;100898.75;;;16.66;100.00
61119;BME280;51448;51.660;5.824;2023-07-31T01:40:41;100889.88;;;16.67;100.00
61119;BME280;51448;51.660;5.824;2023-07-31T01:43:09;100896.03;;;16.68;100.00
61119;BME280;51448;51.660;5.824;2023-07-31T01:45:37;100893.38;;;16.68;100.00
61119;BME280;51448;51.660;5.824;2023-07-31T01:48:05;100880.09;;;16.68;100.00
61119;BME280;51448;51.660;5.824;2023-07-31T01:50:32;100881.03;;;16.67;100.00
61119;BME280;51448;51.660;5.824;2023-07-31T01:53:00;100884.63;;;16.66;100.00
61119;BME280;51448;51.660;5.824;2023-07-31T01:55:27;100881.97;;;16.66;100.00
61119;BME280;51448;51.660;5.824;2023-07-31T01:57:55;100879.34;;;16.66;100.00
61119;BME280;51448;51.660;5.824;2023-07-31T02:00:22;100880.25;;;16.65;100.00
61119;BME280;51448;51.660;5.824;2023-07-31T02:02:50;100873.16;;;16.65;100.00
61119;BME280;51448;51.660;5.824;2023-07-31T02:05:19;100878.56;;;16.64;100.00
61119;BME280;51448;51.660;5.824;2023-07-31T02:07:47;100871.44;;;16.64;100.00
61119;BME280;51448;51.660;5.824;2023-07-31T02:10:15;100874.94;;;16.65;100.00
61119;BME280;51448;51.660;5.824;2023-07-31T02:12:42;100867.06;;;16.63;100.00
61119;BME280;51448;51.660;5.824;2023-07-31T02:15:10;100859.19;;;16.62;100.00
61119;BME280;51448;51.660;5.824;2023-07-31T02:17:37;100855.69;;;16.61;100.00
61119;BME280;51448;51.660;5.824;2023-07-31T02:20:05;100854.78;;;16.61;100.00
61119;BME280;51448;51.660;5.824;2023-07-31T02:22:34;100857.47;;;16.61;100.00
61119;BME280;51448;51.660;5.824;2023-07-31T02:25:02;100845.13;;;16.60;100.00
61119;BME280;51448;51.660;5.824;2023-07-31T02:27:30;100851.38;;;16.59;100.00
61119;BME280;51448;51.660;5.824;2023-07-31T02:29:58;100850.50;;;16.58;100.00
61119;BME280;51448;51.660;5.824;2023-07-31T02:32:26;100852.41;;;16.56;100.00
61119;BME280;51448;51.660;5.824;2023-07-31T02:34:54;100847.16;;;16.55;100.00
61119;BME280;51448;51.660;5.824;2023-07-31T02:37:23;100849.03;;;16.53;100.00
61119;BME280;51448;51.660;5.824;2023-07-31T02:39:51;100846.38;;;16.53;100.00
61119;BME280;51448;51.660;5.824;2023-07-31T02:42:19;100845.59;;;16.50;100.00
61119;BME280;51448;51.660;5.824;2023-07-31T02:44:47;100849.22;;;16.49;100.00
61119;BME280;51448;51.660;5.824;2023-07-31T02:47:14;100851.00;;;16.49;100.00
61119;BME280;51448;51.660;5.824;2023-07-31T02:49:42;100852.78;;;16.48;100.00
61119;BME280;51448;51.660;5.824;2023-07-31T02:52:09;100841.41;;;16.46;100.00
61119;BME280;51448;51.660;5.824;2023-07-31T02:54:37;100842.34;;;16.45;100.00
61119;BME280;51448;51.660;5.824;2023-07-31T02:57:05;100832.66;;;16.44;100.00
61119;BME280;51448;51.660;5.824;2023-07-31T02:59:32;100839.69;;;16.45;100.00
61119;BME280;51448;51.660;5.824;2023-07-31T03:02:00;100837.03;;;16.45;100.00
61119;BME280;51448;51.660;5.824;2023-07-31T03:04:28;100832.59;;;16.46;100.00
61119;BME280;51448;51.660;5.824;2023-07-31T03:06:56;100833.44;;;16.46;100.00
61119;BME280;51448;51.660;5.824;2023-07-31T03:09:24;100832.59;;;16.46;100.00
61119;BME280;51448;51.660;5.824;2023-07-31T03:11:52;100825.47;;;16.46;100.00
61119;BME280;51448;51.660;5.824;2023-07-31T03:14:19;100835.22;;;16.46;100.00
61119;BME280;51448;51.660;5.824;2023-07-31T03:16:47;100826.41;;;16.45;100.00
61119;BME280;51448;51.660;5.824;2023-07-31T03:19:15;100831.72;;;16.45;100.00
61119;BME280;51448;51.660;5.824;2023-07-31T03:21:43;100829.06;;;16.45;100.00
61119;BME280;51448;51.660;5.824;2023-07-31T03:24:10;100832.59;;;16.46;100.00
61119;BME280;51448;51.660;5.824;2023-07-31T03:26:39;100833.44;;;16.46;100.00
61119;BME280;51448;51.660;5.824;2023-07-31T03:29:08;100843.13;;;16.47;100.00
61119;BME280;51448;51.660;5.824;2023-07-31T03:31:36;100845.78;;;16.47;100.00
61119;BME280;51448;51.660;5.824;2023-07-31T03:34:03;100837.81;;;16.47;100.00
61119;BME280;51448;51.660;5.824;2023-07-31T03:36:31;100833.34;;;16.48;100.00
61119;BME280;51448;51.660;5.824;2023-07-31T03:39:00;100835.16;;;16.47;100.00
61119;BME280;51448;51.660;5.824;2023-07-31T03:41:28;100824.63;;;16.46;100.00
61119;BME280;51448;51.660;5.824;2023-07-31T03:43:56;100821.88;;;16.47;100.00
61119;BME280;51448;51.660;5.824;2023-07-31T03:46:24;100824.53;;;16.47;100.00
61119;BME280;51448;51.660;5.824;2023-07-31T03:48:52;100813.94;;;16.47;100.00
61119;BME280;51448;51.660;5.824;2023-07-31T03:51:20;100805.97;;;16.47;100.00
61119;BME280;51448;51.660;5.824;2023-07-31T03:53:47;100804.16;;;16.48;100.00
61119;BME280;51448;51.660;5.824;2023-07-31T03:56:15;100808.63;;;16.47;100.00
61119;BME280;51448;51.660;5.824;2023-07-31T03:58:42;100810.31;;;16.48;100.00
61119;BME280;51448;51.660;5.824;2023-07-31T04:01:10;100796.19;;;16.48;100.00
61119;BME280;51448;51.660;5.824;2023-07-31T04:03:38;100799.69;;;16.48;100.00
61119;BME280;51448;51.660;5.824;2023-07-31T04:06:05;100797.03;;;16.48;100.00
61119;BME280;51448;51.660;5.824;2023-07-31T04:08:34;100795.16;;;16.50;100.00
61119;BME280;51448;51.660;5.824;2023-07-31T04:11:02;100798.69;;;16.51;100.00
61119;BME280;51448;51.660;5.824;2023-07-31T04:13:30;100800.31;;;16.54;100.00
61119;BME280;51448;51.660;5.824;2023-07-31T04:15:57;100787.91;;;16.54;100.00
61119;BME280;51448;51.660;5.824;2023-07-31T04:18:25;100784.31;;;16.55;100.00
61119;BME280;51448;51.660;5.824;2023-07-31T04:20:53;100788.59;;;16.58;100.00
61119;BME280;51448;51.660;5.824;2023-07-31T04:23:21;100780.56;;;16.59;100.00
61119;BME280;51448;51.660;5.824;2023-07-31T04:25:49;100791.06;;;16.61;100.00
61119;BME280;51448;51.660;5.824;2023-07-31T04:28:16;100791.00;;;16.62;100.00
61119;BME280;51448;51.660;5.824;2023-07-31T04:30:44;100782.09;;;16.63;100.00
61119;BME280;51448;51.660;5.824;2023-07-31T04:33:15;100789.97;;;16.65;100.00
61119;BME280;51448;51.660;5.824;2023-07-31T04:35:50;100787.09;;;16.69;100.00
61119;BME280;51448;51.660;5.824;2023-07-31T04:38:20;100784.31;;;16.71;100.00
61119;BME280;51448;51.660;5.824;2023-07-31T04:40:48;100778.09;;;16.72;100.00
61119;BME280;51448;51.660;5.824;2023-07-31T04:43:16;100778.84;;;16.74;100.00
61119;BME280;51448;51.660;5.824;2023-07-31T04:45:47;100778.69;;;16.77;100.00
61119;BME280;51448;51.660;5.824;2023-07-31T04:48:15;100774.13;;;16.79;100.00
61119;BME280;51448;51.660;5.824;2023-07-31T04:50:43;100769.63;;;16.81;100.00
61119;BME280;51448;51.660;5.824;2023-07-31T04:53:10;100765.09;;;16.83;100.00
61119;BME280;51448;51.660;5.824;2023-07-31T04:55:38;100764.09;;;16.86;100.00
61119;BME280;51448;51.660;5.824;2023-07-31T04:58:05;100765.72;;;16.88;100.00
61119;BME280;51448;51.660;5.824;2023-07-31T05:00:33;100771.78;;;16.91;100.00
61119;BME280;51448;51.660;5.824;2023-07-31T05:03:00;100776.16;;;16.92;100.00
61119;BME280;51448;51.660;5.824;2023-07-31T05:05:28;100758.44;;;16.92;100.00
61119;BME280;51448;51.660;5.824;2023-07-31T05:07:56;100760.22;;;16.92;100.00
61119;BME280;51448;51.660;5.824;2023-07-31T05:10:24;100751.41;;;16.91;100.00
61119;BME280;51448;51.660;5.824;2023-07-31T05:12:52;100753.97;;;16.93;100.00
61119;BME280;51448;51.660;5.824;2023-07-31T05:15:19;100739.72;;;16.94;100.00
61119;BME280;51448;51.660;5.824;2023-07-31T05:17:47;100737.97;;;16.94;100.00
61119;BME280;51448;51.660;5.824;2023-07-31T05:20:15;100731.59;;;16.97;100.00
61119;BME280;51448;51.660;5.824;2023-07-31T05:22:42;100736.06;;;16.96;100.00
61119;BME280;51448;51.660;5.824;2023-07-31T05:25:10;100728.00;;;16.98;100.00
61119;BME280;51448;51.660;5.824;2023-07-31T05:27:37;100729.72;;;16.99;100.00
61119;BME280;51448;51.660;5.824;2023-07-31T05:30:05;100724.22;;;17.02;100.00
61119;BME280;51448;51.660;5.824;2023-07-31T05:32:34;100726.72;;;17.05;100.00
61119;BME280;51448;51.660;5.824;2023-07-31T05:35:01;100723.88;;;17.08;100.00
61119;BME280;51448;51.660;5.824;2023-07-31T05:37:29;100722.84;;;17.11;100.00
61119;BME280;51448;51.660;5.824;2023-07-31T05:39:56;100722.94;;;17.09;100.00
61119;BME280;51448;51.660;5.824;2023-07-31T05:42:24;100732.59;;;17.10;100.00
61119;BME280;51448;51.660;5.824;2023-07-31T05:44:52;100727.41;;;17.08;100.00
61119;BME280;51448;51.660;5.824;2023-07-31T05:47:19;100715.03;;;17.07;100.00
61119;BME280;51448;51.660;5.824;2023-07-31T05:49:48;100714.19;;;17.07;100.00
61119;BME280;51448;51.660;5.824;2023-07-31T05:52:16;100714.19;;;17.07;100.00
61119;BME280;51448;51.660;5.824;2023-07-31T05:54:44;100709.81;;;17.06;100.00
61119;BME280;51448;51.660;5.824;2023-07-31T05:57:13;100713.25;;;17.08;100.00
61119;BME280;51448;51.660;5.824;2023-07-31T05:59:40;100707.94;;;17.08;100.00
61119;BME280;51448;51.660;5.824;2023-07-31T06:02:08;100708.88;;;17.07;100.00
61119;BME280;51448;51.660;5.824;2023-07-31T06:04:35;100716.00;;;17.06;100.00
61119;BME280;51448;51.660;5.824;2023-07-31T06:07:03;100713.44;;;17.05;100.00
61119;BME280;51448;51.660;5.824;2023-07-31T06:09:31;100707.44;;;17.01;100.00
61119;BME280;51448;51.660;5.824;2023-07-31T06:11:59;100697.84;;;16.99;100.00
61119;BME280;51448;51.660;5.824;2023-07-31T06:14:26;100700.66;;;16.96;100.00
61119;BME280;51448;51.660;5.824;2023-07-31T06:16:54;100703.31;;;16.96;100.00
61119;BME280;51448;51.660;5.824;2023-07-31T06:19:21;100696.31;;;16.95;100.00
61119;BME280;51448;51.660;5.824;2023-07-31T06:21:49;100694.69;;;16.92;100.00
61119;BME280;51448;51.660;5.824;2023-07-31T06:24:17;100687.56;;;16.93;100.00
61119;BME280;51448;51.660;5.824;2023-07-31T06:26:47;100698.19;;;16.93;100.00
61119;BME280;51448;51.660;5.824;2023-07-31T06:29:15;100687.56;;;16.93;100.00
61119;BME280;51448;51.660;5.824;2023-07-31T06:31:42;100684.06;;;16.92;100.00
61119;BME280;51448;51.660;5.824;2023-07-31T06:34:10;100683.28;;;16.90;100.00
61119;BME280;51448;51.660;5.824;2023-07-31T06:36:38;100682.31;;;16.91;100.00
61119;BME280;51448;51.660;5.824;2023-07-31T06:39:06;100683.09;;;16.93;100.00
61119;BME280;51448;51.660;5.824;2023-07-31T06:41:34;100684.72;;;16.96;100.00
61119;BME280;51448;51.660;5.824;2023-07-31T06:44:06;100680.16;;;16.98;100.00
61119;BME280;51448;51.660;5.824;2023-07-31T06:46:34;100673.94;;;16.99;100.00
61119;BME280;51448;51.660;5.824;2023-07-31T06:49:02;100665.88;;;17.00;100.00
61119;BME280;51448;51.660;5.824;2023-07-31T06:51:31;100667.50;;;17.03;100.00
61119;BME280;51448;51.660;5.824;2023-07-31T06:53:59;100668.25;;;17.05;100.00
61119;BME280;51448;51.660;5.824;2023-07-31T06:56:26;100661.13;;;17.05;100.00
61119;BME280;51448;51.660;5.824;2023-07-31T06:58:55;100655.66;;;17.08;100.00
61119;BME280;51448;51.660;5.824;2023-07-31T07:01:23;100656.44;;;17.11;100.00
61119;BME280;51448;51.660;5.824;2023-07-31T07:03:51;100659.84;;;17.13;100.00
61119;BME280;51448;51.660;5.824;2023-07-31T07:06:18;100657.00;;;17.16;100.00
61119;BME280;51448;51.660;5.824;2023-07-31T07:08:46;100650.66;;;17.18;100.00
61119;BME280;51448;51.660;5.824;2023-07-31T07:11:16;100655.78;;;17.21;100.00
61119;BME280;51448;51.660;5.824;2023-07-31T07:13:44;100646.09;;;17.20;100.00
61119;BME280;51448;51.660;5.824;2023-07-31T07:16:11;100646.22;;;17.19;100.00
61119;BME280;51448;51.660;5.824;2023-07-31T07:18:39;100653.31;;;17.18;100.00
61119;BME280;51448;51.660;5.824;2023-07-31T07:21:20;100640.00;;;17.18;100.00
61119;BME280;51448;51.660;5.824;2023-07-31T07:23:47;100640.00;;;17.18;100.00
61119;BME280;51448;51.660;5.824;2023-07-31T07:26:15;100642.66;;;17.18;100.00
61119;BME280;51448;51.660;5.824;2023-07-31T07:28:43;100639.09;;;17.19;100.00
61119;BME280;51448;51.660;5.824;2023-07-31T07:31:10;100637.28;;;17.20;100.00
61119;BME280;51448;51.660;5.824;2023-07-31T07:33:38;100635.38;;;17.22;100.00
61119;BME280;51448;51.660;5.824;2023-07-31T07:36:06;100630.91;;;17.22;100.00
61119;BME280;51448;51.660;5.824;2023-07-31T07:38:37;100638.81;;;17.24;100.00
61119;BME280;51448;51.660;5.824;2023-07-31T07:41:06;100636.06;;;17.25;100.00
61119;BME280;51448;51.660;5.824;2023-07-31T07:43:34;100635.09;;;17.26;100.00
61119;BME280;51448;51.660;5.824;2023-07-31T07:46:01;100639.28;;;17.30;100.00
61119;BME280;51448;51.660;5.824;2023-07-31T07:48:29;100647.88;;;17.36;100.00
61119;BME280;51448;51.660;5.824;2023-07-31T07:50:57;100636.19;;;17.38;100.00
61119;BME280;51448;51.660;5.824;2023-07-31T07:53:24;100638.75;;;17.40;100.00
61119;BME280;51448;51.660;5.824;2023-07-31T07:55:52;100638.69;;;17.41;100.00
61119;BME280;51448;51.660;5.824;2023-07-31T07:58:19;100630.69;;;17.41;100.00
61119;BME280;51448;51.660;5.824;2023-07-31T08:00:51;100634.97;;;17.44;100.00
61119;BME280;51448;51.660;5.824;2023-07-31T08:03:19;100636.88;;;17.42;100.00
61119;BME280;51448;51.660;5.824;2023-07-31T08:05:47;100628.13;;;17.40;100.00
61119;BME280;51448;51.660;5.824;2023-07-31T08:08:15;100626.31;;;17.40;100.00
61119;BME280;51448;51.660;5.824;2023-07-31T08:10:43;100626.41;;;17.39;100.00
61119;BME280;51448;51.660;5.824;2023-07-31T08:13:11;100631.72;;;17.39;100.00
61119;BME280;51448;51.660;5.824;2023-07-31T08:15:43;100624.69;;;17.38;100.00
61119;BME280;51448;51.660;5.824;2023-07-31T08:18:11;100622.97;;;17.37;100.00
61119;BME280;51448;51.660;5.824;2023-07-31T08:20:39;100624.69;;;17.38;100.00
61119;BME280;51448;51.660;5.824;2023-07-31T08:23:07;100624.69;;;17.38;100.00
61119;BME280;51448;51.660;5.824;2023-07-31T08:25:37;100622.97;;;17.37;100.00
61119;BME280;51448;51.660;5.824;2023-07-31T08:28:05;100626.59;;;17.36;100.00
61119;BME280;51448;51.660;5.824;2023-07-31T08:30:35;100619.47;;;17.36;100.00
61119;BME280;51448;51.660;5.824;2023-07-31T08:33:02;100618.53;;;17.37;100.00
61119;BME280;51448;51.660;5.824;2023-07-31T08:35:30;100620.06;;;17.41;100.00
61119;BME280;51448;51.660;5.824;2023-07-31T08:37:59;100629.44;;;17.47;100.00
61119;BME280;51448;51.660;5.824;2023-07-31T08:40:27;100631.75;;;17.53;100.00
61119;BME280;51448;51.660;5.824;2023-07-31T08:42:56;100616.56;;;17.55;100.00
61119;BME280;51448;51.660;5.824;2023-07-31T08:45:24;100622.53;;;17.59;100.00
61119;BME280;51448;51.660;5.824;2023-07-31T08:47:52;100620.84;;;17.58;100.00
61119;BME280;51448;51.660;5.824;2023-07-31T08:50:21;100615.69;;;17.55;100.00
61119;BME280;51448;51.660;5.824;2023-07-31T08:52:50;100625.41;;;17.56;100.00
61119;BME280;51448;51.660;5.824;2023-07-31T08:55:20;100619.31;;;17.54;100.00
61119;BME280;51448;51.660;5.824;2023-07-31T08:57:51;100621.97;;;17.54;100.00
61119;BME280;51448;51.660;5.824;2023-07-31T09:00:21;100627.19;;;17.55;100.00
61119;BME280;51448;51.660;5.824;2023-07-31T09:03:13;100627.94;;;17.57;100.00
61119;BME280;51448;51.660;5.824;2023-07-31T09:05:44;100620.94;;;17.56;100.00
61119;BME280;51448;51.660;5.824;2023-07-31T09:08:14;100623.59;;;17.56;100.00
61119;BME280;51448;51.660;5.824;2023-07-31T09:10:45;100629.84;;;17.55;100.00
61119;BME280;51448;51.660;5.824;2023-07-31T09:13:14;100628.72;;;17.59;100.00
61119;BME280;51448;51.660;5.824;2023-07-31T09:15:45;100614.47;;;17.60;100.00
61119;BME280;51448;51.660;5.824;2023-07-31T09:18:14;100624.28;;;17.60;100.00
61119;BME280;51448;51.660;5.824;2023-07-31T09:20:45;100611.16;;;17.57;100.00
61119;BME280;51448;51.660;5.824;2023-07-31T09:23:40;100613.81;;;17.57;100.00
61119;BME280;51448;51.660;5.824;2023-07-31T09:29:01;100607.81;;;17.53;100.00
61119;BME280;51448;51.660;5.824;2023-07-31T09:31:40;100616.91;;;17.49;100.00
61119;BME280;51448;51.660;5.824;2023-07-31T09:34:10;100604.75;;;17.45;100.00
61119;BME280;51448;51.660;5.824;2023-07-31T09:36:45;100604.69;;;17.46;100.00
61119;BME280;51448;51.660;5.824;2023-07-31T09:39:16;100596.53;;;17.49;100.00
61119;BME280;51448;51.660;5.824;2023-07-31T09:41:47;100603.53;;;17.50;100.00
61119;BME280;51448;51.660;5.824;2023-07-31T09:44:21;100591.78;;;17.55;100.00
61119;BME280;51448;51.660;5.824;2023-07-31T09:47:04;100597.84;;;17.57;100.00
61119;BME280;51448;51.660;5.824;2023-07-31T09:49:32;100588.75;;;17.61;100.00
61119;BME280;51448;51.660;5.824;2023-07-31T09:51:59;100585.78;;;17.65;100.00
61119;BME280;51448;51.660;5.824;2023-07-31T09:54:27;100588.06;;;17.72;100.00
61119;BME280;51448;51.660;5.824;2023-07-31T09:56:56;100587.69;;;17.78;100.00
61119;BME280;51448;51.660;5.824;2023-07-31T09:59:27;100588.38;;;17.81;100.00
61119;BME280;51448;51.660;5.824;2023-07-31T10:01:56;100591.53;;;17.88;100.00
61119;BME280;51448;51.660;5.824;2023-07-31T10:04:27;100585.81;;;17.94;100.00
61119;BME280;51448;51.660;5.824;2023-07-31T10:06:58;100590.13;;;17.97;100.00
61119;BME280;51448;51.660;5.824;2023-07-31T10:09:30;100587.16;;;18.01;100.00
61119;BME280;51448;51.660;5.824;2023-07-31T10:12:05;100590.28;;;18.08;100.00
61119;BME280;51448;51.660;5.824;2023-07-31T10:14:38;100580.28;;;18.12;100.00
61119;BME280;51448;51.660;5.824;2023-07-31T10:17:08;100582.56;;;18.18;100.00
61119;BME280;51448;51.660;5.824;2023-07-31T10:19:36;100586.53;;;18.25;100.00
61119;BME280;51448;51.660;5.824;2023-07-31T10:22:06;100576.38;;;18.32;100.00
61119;BME280;51448;51.660;5.824;2023-07-31T10:24:39;100584.81;;;18.38;100.00
61119;BME280;51448;51.660;5.824;2023-07-31T10:27:08;100577.94;;;18.48;100.00
61119;BME280;51448;51.660;5.824;2023-07-31T10:29:43;100577.22;;;18.59;100.00
61119;BME280;51448;51.660;5.824;2023-07-31T10:32:16;100573.41;;;18.63;100.00
61119;BME280;51448;51.660;5.824;2023-07-31T10:34:46;100577.78;;;18.64;100.00
61119;BME280;51448;51.660;5.824;2023-07-31T10:40:04;100580.75;;;18.87;100.00
61119;BME280;51448;51.660;5.824;2023-07-31T10:42:53;100572.03;;;18.98;100.00
61119;BME280;51448;51.660;5.824;2023-07-31T10:45:36;100566.06;;;19.07;100.00
61119;BME280;51448;51.660;5.824;2023-07-31T10:48:05;100568.53;;;19.10;100.00
61119;BME280;51448;51.660;5.824;2023-07-31T10:50:38;100567.56;;;19.11;100.00
61119;BME280;51448;51.660;5.824;2023-07-31T10:56:01;100571.22;;;19.10;100.00
61119;BME280;51448;51.660;5.824;2023-07-31T10:58:31;100568.53;;;19.10;100.00
61119;BME280;51448;51.660;5.824;2023-07-31T11:01:01;100566.72;;;19.10;100.00
61119;BME280;51448;51.660;5.824;2023-07-31T11:03:47;100563.97;;;19.12;100.00
61119;BME280;51448;51.660;5.824;2023-07-31T11:06:16;100562.47;;;19.08;100.00
61119;BME280;51448;51.660;5.824;2023-07-31T11:08:47;100561.72;;;19.06;100.00
61119;BME280;51448;51.660;5.824;2023-07-31T11:11:18;100566.28;;;19.04;100.00
61119;BME280;51448;51.660;5.824;2023-07-31T11:13:47;100562.97;;;19.00;100.00
61119;BME280;51448;51.660;5.824;2023-07-31T11:16:19;100576.72;;;18.94;100.00
61119;BME280;51448;51.660;5.824;2023-07-31T11:18:49;100569.88;;;18.90;100.00
61119;BME280;51448;51.660;5.824;2023-07-31T11:21:20;100565.41;;;18.90;100.00
61119;BME280;51448;51.660;5.824;2023-07-31T11:23:54;100570.72;;;18.90;100.00
61119;BME280;51448;51.660;5.824;2023-07-31T11:26:27;100566.91;;;18.95;100.00
61119;BME280;51448;51.660;5.824;2023-07-31T11:28:55;100573.31;;;19.05;100.00
61119;BME280;51448;51.660;5.824;2023-07-31T11:31:22;100562.78;;;19.16;100.00
61119;BME280;51448;51.660;5.824;2023-07-31T11:33:50;100559.06;;;19.32;100.00
61119;BME280;51448;51.660;5.824;2023-07-31T11:36:20;100557.78;;;19.50;100.00
61119;BME280;51448;51.660;5.824;2023-07-31T11:38:48;100567.59;;;19.62;100.00
61119;BME280;51448;51.660;5.824;2023-07-31T11:41:17;100561.72;;;19.70;100.00
61119;BME280;51448;51.660;5.824;2023-07-31T11:43:48;100555.66;;;19.81;100.00
61119;BME280;51448;51.660;5.824;2023-07-31T11:46:15;100555.00;;;19.90;100.00
61119;BME280;51448;51.660;5.824;2023-07-31T11:48:45;100551.66;;;19.99;100.00
61119;BME280;51448;51.660;5.824;2023-07-31T11:51:13;100550.47;;;20.03;100.00
61119;BME280;51448;51.660;5.824;2023-07-31T11:53:54;100535.00;;;20.08;100.00
61119;BME280;51448;51.660;5.824;2023-07-31T11:56:25;100540.00;;;20.13;100.00
61119;BME280;51448;51.660;5.824;2023-07-31T11:58:57;100545.72;;;20.20;100.00
61119;BME280;51448;51.660;5.824;2023-07-31T12:01:27;100533.66;;;20.27;100.00
61119;BME280;51448;51.660;5.824;2023-07-31T12:03:56;100540.47;;;20.31;100.00
61119;BME280;51448;51.660;5.824;2023-07-31T12:06:35;100542.06;;;20.34;100.00
61119;BME280;51448;51.660;5.824;2023-07-31T12:09:04;100539.72;;;20.29;100.00
61119;BME280;51448;51.660;5.824;2023-07-31T12:11:43;100551.38;;;20.28;100.00
61119;BME280;51448;51.660;5.824;2023-07-31T12:14:38;100544.44;;;20.25;100.00
61119;BME280;51448;51.660;5.824;2023-07-31T12:17:09;100552.78;;;20.21;100.00
61119;BME280;51448;51.660;5.824;2023-07-31T12:19:37;100543.31;;;20.17;100.00
61119;BME280;51448;51.660;5.824;2023-07-31T12:22:15;100547.66;;;20.18;100.00
61119;BME280;51448;51.660;5.824;2023-07-31T12:24:44;100553.97;;;20.17;100.00
61119;BME280;51448;51.660;5.824;2023-07-31T12:27:13;100553.34;;;20.13;100.00
61119;BME280;51448;51.660;5.824;2023-07-31T12:29:42;100545.56;;;20.10;100.00
61119;BME280;51448;51.660;5.824;2023-07-31T12:32:20;100551.97;;;20.07;100.00
61119;BME280;51448;51.660;5.824;2023-07-31T12:34:49;100538.00;;;20.04;100.00
61119;BME280;51448;51.660;5.824;2023-07-31T12:37:17;100538.97;;;20.03;100.00
61119;BME280;51448;51.660;5.824;2023-07-31T12:39:45;100539.06;;;20.01;100.00
61119;BME280;51448;51.660;5.824;2023-07-31T12:42:13;100525.72;;;20.01;100.00
61119;BME280;51448;51.660;5.824;2023-07-31T12:44:40;100530.59;;;20.07;100.00
61119;BME280;51448;51.660;5.824;2023-07-31T12:47:08;100529.94;;;20.17;100.00
61119;BME280;51448;51.660;5.824;2023-07-31T12:49:35;100526.19;;;20.19;100.00
61119;BME280;51448;51.660;5.824;2023-07-31T12:52:03;100512.00;;;20.19;100.00
61119;BME280;51448;51.660;5.824;2023-07-31T12:54:31;100523.31;;;20.22;100.00
61119;BME280;51448;51.660;5.824;2023-07-31T12:56:59;100512.75;;;20.21;100.00
61119;BME280;51448;51.660;5.824;2023-07-31T12:59:27;100513.69;;;20.20;100.00
61119;BME280;51448;51.660;5.824;2023-07-31T13:01:55;100510.41;;;20.16;100.00
61119;BME280;51448;51.660;5.824;2023-07-31T13:04:22;100499.59;;;20.18;100.00
61119;BME280;51448;51.660;5.824;2023-07-31T13:06:50;100501.31;;;20.19;100.00
61119;BME280;51448;51.660;5.824;2023-07-31T13:09:18;100494.50;;;20.15;100.00